Paradise Hill, Canada
Current Conditions -  °F | °C
As of 9:21 AM on Monday 24 Nov 2014 (Local Time) from CYLL Reporting Station
Overcast Overcast  
Wind Chill: 11°   Ceiling: 1300
Heat Index: 21°   Visibility: 12mi
Dew Point: 18°   Wind: 9mph
Humidity: 86%   Direction: 310°NW
Pressure: 29.88"   Gusts: NA
Location:  53.53°N, 109.45°W
Report Text: CYLL 241521Z 31008KT 12SM BKN013 OVC240 M06/M08 A2988 RMK SC6CI2 SLP168
Loading
Personal Weather Stations






























Interactive Weather Map New forecast layout! Learn more

10-Day Weather Forecast

Advertisements
Track Severe Weather on mobile